createdAt,value
2018-05-04T00:00:55.194Z,0.00
2018-05-04T00:01:55.178Z,0.00
2018-05-04T00:02:55.208Z,0.00
2018-05-04T00:03:55.177Z,0.00
2018-05-04T00:04:55.190Z,0.00
2018-05-04T00:05:55.174Z,0.00
2018-05-04T00:06:55.209Z,0.00
2018-05-04T00:07:55.174Z,0.00
2018-05-04T00:08:55.185Z,0.00
2018-05-04T00:09:55.169Z,0.00
2018-05-04T00:10:55.176Z,0.00
2018-05-04T00:11:55.173Z,0.00
2018-05-04T00:12:55.172Z,0.00
2018-05-04T00:13:55.169Z,0.00
2018-05-04T00:14:55.177Z,0.00
2018-05-04T00:15:55.167Z,0.00
2018-05-04T00:16:55.165Z,0.00
2018-05-04T00:17:55.164Z,0.00
2018-05-04T00:18:55.163Z,0.00
2018-05-04T00:19:55.164Z,0.00
2018-05-04T00:20:55.162Z,0.00
2018-05-04T00:21:55.171Z,0.00
2018-05-04T00:22:55.172Z,0.00
2018-05-04T00:23:55.177Z,0.00
2018-05-04T00:24:55.173Z,0.00
2018-05-04T00:25:55.161Z,0.00
2018-05-04T00:26:55.167Z,0.00
2018-05-04T00:27:55.157Z,0.00
2018-05-04T00:28:55.157Z,0.00
2018-05-04T00:29:55.154Z,0.00
2018-05-04T00:30:55.154Z,0.00
2018-05-04T00:31:55.153Z,0.00
2018-05-04T00:32:55.151Z,0.00
2018-05-04T00:33:55.162Z,0.00
2018-05-04T00:34:55.150Z,0.00
2018-05-04T00:35:55.175Z,0.00
2018-05-04T00:36:55.148Z,0.00
2018-05-04T00:37:55.147Z,0.00
2018-05-04T00:38:55.145Z,0.00
2018-05-04T00:39:55.146Z,0.00
2018-05-04T00:40:56.053Z,0.00
2018-05-04T00:41:55.143Z,0.00
2018-05-04T00:42:55.140Z,0.00
2018-05-04T00:43:55.142Z,0.00
2018-05-04T00:44:55.141Z,0.00
2018-05-04T00:45:55.139Z,0.00
2018-05-04T00:46:55.139Z,0.00
2018-05-04T00:47:55.137Z,0.00
2018-05-04T00:48:55.136Z,0.00
2018-05-04T00:49:55.136Z,0.00
2018-05-04T00:50:55.135Z,0.00
2018-05-04T00:51:55.132Z,0.00
2018-05-04T00:52:55.133Z,0.00
2018-05-04T00:53:55.132Z,0.00
2018-05-04T00:54:55.138Z,0.00
2018-05-04T00:55:55.131Z,0.00
2018-05-04T00:56:55.131Z,0.00
2018-05-04T00:57:55.129Z,0.00
2018-05-04T00:58:55.129Z,0.00
2018-05-04T00:59:55.127Z,0.00
2018-05-04T01:00:55.126Z,0.00
2018-05-04T01:01:55.126Z,0.00
2018-05-04T01:02:55.125Z,0.00
2018-05-04T01:03:55.125Z,0.00
2018-05-04T01:04:55.123Z,0.00
2018-05-04T01:05:55.122Z,0.00
2018-05-04T01:06:55.126Z,0.00
2018-05-04T01:07:55.129Z,0.00
2018-05-04T01:08:55.118Z,0.00
2018-05-04T01:09:55.118Z,0.00
2018-05-04T01:10:55.121Z,0.00
2018-05-04T01:11:55.118Z,0.00
2018-05-04T01:12:55.114Z,0.00
2018-05-04T01:13:55.115Z,0.00
2018-05-04T01:14:55.122Z,0.00
2018-05-04T01:15:55.128Z,0.00
2018-05-04T01:16:55.114Z,0.00
2018-05-04T01:17:55.116Z,0.00
2018-05-04T01:18:55.116Z,0.00
2018-05-04T01:19:55.121Z,0.00
2018-05-04T01:20:55.129Z,0.00
2018-05-04T01:21:55.110Z,0.00
2018-05-04T01:22:55.106Z,0.00
2018-05-04T01:23:55.112Z,0.00
2018-05-04T01:24:55.105Z,0.00
2018-05-04T01:25:55.104Z,0.00
2018-05-04T01:26:55.103Z,0.00
2018-05-04T01:27:55.102Z,0.00
2018-05-04T01:28:55.106Z,0.00
2018-05-04T01:29:55.102Z,0.00
2018-05-04T01:30:55.101Z,0.00
2018-05-04T01:31:55.099Z,0.00
2018-05-04T01:32:55.098Z,0.00
2018-05-04T01:33:55.098Z,0.00
2018-05-04T01:34:55.095Z,0.00
2018-05-04T01:35:55.094Z,0.00
2018-05-04T01:36:55.094Z,0.00
2018-05-04T01:37:55.090Z,0.00
2018-05-04T01:38:55.091Z,0.00
2018-05-04T01:39:55.091Z,0.00
2018-05-04T01:40:55.091Z,0.00
2018-05-04T01:41:55.089Z,0.00
2018-05-04T01:42:55.088Z,0.00
2018-05-04T01:43:55.087Z,0.00
2018-05-04T01:44:55.086Z,0.00
2018-05-04T01:45:55.095Z,0.00
2018-05-04T01:46:55.083Z,0.00
2018-05-04T01:47:55.083Z,0.00
2018-05-04T01:48:55.080Z,0.00
2018-05-04T01:49:55.080Z,0.00
2018-05-04T01:50:55.078Z,0.00
2018-05-04T01:51:55.082Z,0.00
2018-05-04T01:52:55.076Z,0.00
2018-05-04T01:53:55.077Z,0.00
2018-05-04T01:54:55.101Z,0.00
2018-05-04T01:55:55.073Z,0.00
2018-05-04T01:56:55.076Z,0.00
2018-05-04T01:57:55.071Z,0.00
2018-05-04T01:58:55.070Z,0.00
2018-05-04T01:59:55.067Z,0.00
2018-05-04T02:00:55.067Z,0.00
2018-05-04T02:01:55.072Z,0.00
2018-05-04T02:02:55.066Z,0.00
2018-05-04T02:03:55.065Z,0.00
2018-05-04T02:04:55.066Z,0.00
2018-05-04T02:05:55.062Z,0.00
2018-05-04T02:06:55.062Z,0.00
2018-05-04T02:07:55.062Z,0.00
2018-05-04T02:08:55.060Z,0.00
2018-05-04T02:09:55.057Z,0.00
2018-05-04T02:10:55.058Z,0.00
2018-05-04T02:11:55.054Z,0.00
2018-05-04T02:12:55.054Z,0.00
2018-05-04T02:13:55.053Z,0.00
2018-05-04T02:14:55.057Z,0.00
2018-05-04T02:15:55.050Z,0.00
2018-05-04T02:16:55.051Z,0.00
2018-05-04T02:17:55.049Z,0.00
2018-05-04T02:18:55.048Z,0.00
2018-05-04T02:19:55.046Z,0.00
2018-05-04T02:20:55.051Z,0.00
2018-05-04T02:21:55.044Z,0.00
2018-05-04T02:22:55.042Z,0.00
2018-05-04T02:23:55.048Z,0.00
2018-05-04T02:24:55.041Z,0.00
2018-05-04T02:25:55.041Z,0.00
2018-05-04T02:26:55.038Z,0.00
2018-05-04T02:27:55.038Z,0.00
2018-05-04T02:28:55.033Z,0.00
2018-05-04T02:29:55.034Z,0.00
2018-05-04T02:30:55.037Z,0.00
2018-05-04T02:31:55.033Z,0.00
2018-05-04T02:32:55.032Z,0.00
2018-05-04T02:33:55.028Z,0.00
2018-05-04T02:34:55.027Z,0.00
2018-05-04T02:35:55.027Z,0.00
2018-05-04T02:36:55.024Z,0.00
2018-05-04T02:37:55.023Z,0.00
2018-05-04T02:38:55.025Z,0.00
2018-05-04T02:39:55.022Z,0.00
2018-05-04T02:40:55.032Z,0.00
2018-05-04T02:41:55.018Z,0.00
2018-05-04T02:42:55.016Z,0.00
2018-05-04T02:43:55.058Z,0.00
2018-05-04T02:44:55.014Z,0.00
2018-05-04T02:45:55.011Z,0.00
2018-05-04T02:46:55.011Z,0.00
2018-05-04T02:47:55.009Z,0.00
2018-05-04T02:48:55.014Z,0.00
2018-05-04T02:49:55.006Z,0.00
2018-05-04T02:50:55.004Z,0.00
2018-05-04T02:51:55.006Z,0.00
2018-05-04T02:52:54.999Z,0.00
2018-05-04T02:53:55.004Z,0.00
2018-05-04T02:54:54.999Z,0.00
2018-05-04T02:55:54.997Z,0.00
2018-05-04T02:56:54.996Z,0.00
2018-05-04T02:57:54.993Z,0.00
2018-05-04T02:58:54.991Z,0.00
2018-05-04T02:59:54.992Z,0.00
2018-05-04T03:00:54.989Z,0.00
2018-05-04T03:01:54.986Z,0.00
2018-05-04T03:02:54.985Z,0.00
2018-05-04T03:03:54.983Z,0.00
2018-05-04T03:04:54.981Z,0.00
2018-05-04T03:05:54.981Z,0.00
2018-05-04T03:06:54.977Z,0.00
2018-05-04T03:07:54.980Z,0.00
2018-05-04T03:08:54.982Z,0.00
2018-05-04T03:09:54.981Z,0.00
2018-05-04T03:10:54.980Z,0.00
2018-05-04T03:11:54.971Z,0.00
2018-05-04T03:12:54.969Z,0.00
2018-05-04T03:13:54.966Z,0.00
2018-05-04T03:14:54.966Z,0.00
2018-05-04T03:15:54.971Z,0.00
2018-05-04T03:16:54.963Z,0.00
2018-05-04T03:17:54.960Z,0.00
2018-05-04T03:18:54.960Z,0.00
2018-05-04T03:19:54.958Z,0.00
2018-05-04T03:20:54.954Z,0.00
2018-05-04T03:21:54.970Z,0.00
2018-05-04T03:22:54.953Z,0.00
2018-05-04T03:23:54.951Z,0.00
2018-05-04T03:24:54.950Z,0.00
2018-05-04T03:25:54.947Z,4.00
2018-05-04T03:26:54.945Z,0.00
2018-05-04T03:27:54.958Z,0.00
2018-05-04T03:28:54.941Z,4.00
2018-05-04T03:29:54.940Z,4.00
2018-05-04T03:30:54.936Z,4.00
2018-05-04T03:31:54.942Z,4.00
2018-05-04T03:32:54.936Z,4.00
2018-05-04T03:33:54.933Z,4.00
2018-05-04T03:34:54.931Z,4.00
2018-05-04T03:35:54.933Z,8.00
2018-05-04T03:36:54.931Z,8.00
2018-05-04T03:37:54.925Z,8.00
2018-05-04T03:38:54.925Z,12.00
2018-05-04T03:39:54.923Z,8.00
2018-05-04T03:40:54.933Z,12.00
2018-05-04T03:41:54.918Z,12.00
2018-05-04T03:42:54.957Z,12.00
2018-05-04T03:43:54.915Z,12.00
2018-05-04T03:44:54.916Z,20.00
2018-05-04T03:45:54.912Z,20.00
2018-05-04T03:46:54.909Z,20.00
2018-05-04T03:47:54.908Z,20.00
2018-05-04T03:48:54.904Z,24.00
2018-05-04T03:49:54.903Z,24.00
2018-05-04T03:50:54.903Z,28.00
2018-05-04T03:51:54.902Z,28.00
2018-05-04T03:52:54.906Z,28.00
2018-05-04T03:53:54.897Z,28.00
2018-05-04T03:54:54.893Z,28.00
2018-05-04T03:55:54.908Z,32.00
2018-05-04T03:56:54.890Z,32.00
2018-05-04T03:57:54.903Z,36.00
2018-05-04T03:58:54.888Z,36.00
2018-05-04T03:59:54.887Z,40.00
2018-05-04T04:00:54.885Z,44.00
2018-05-04T04:01:54.887Z,44.00
2018-05-04T04:02:54.883Z,48.00
2018-05-04T04:03:55.033Z,48.00
2018-05-04T04:04:54.876Z,52.00
2018-05-04T04:05:54.874Z,52.00
2018-05-04T04:06:54.874Z,56.00
2018-05-04T04:07:54.879Z,60.00
2018-05-04T04:08:54.870Z,64.00
2018-05-04T04:09:54.880Z,72.00
2018-05-04T04:10:54.866Z,76.00
2018-05-04T04:11:54.865Z,76.00
2018-05-04T04:12:54.863Z,80.00
2018-05-04T04:13:54.861Z,84.00
2018-05-04T04:14:54.859Z,84.00
2018-05-04T04:15:54.856Z,88.00
2018-05-04T04:16:54.855Z,88.00
2018-05-04T04:17:54.906Z,92.00
2018-05-04T04:18:54.852Z,92.00
2018-05-04T04:19:54.851Z,100.00
2018-05-04T04:20:54.889Z,96.00
2018-05-04T04:21:54.851Z,100.00
2018-05-04T04:22:54.970Z,104.00
2018-05-04T04:23:54.849Z,104.00
2018-05-04T04:24:54.840Z,112.00
2018-05-04T04:25:54.840Z,112.00
2018-05-04T04:26:54.838Z,116.00
2018-05-04T04:27:54.872Z,120.00
2018-05-04T04:28:54.985Z,128.00
2018-05-04T04:29:54.923Z,132.00
2018-05-04T04:30:54.843Z,132.00
2018-05-04T04:31:54.836Z,136.00
2018-05-04T04:32:54.823Z,136.00
2018-05-04T04:33:54.824Z,140.00
2018-05-04T04:34:54.873Z,140.00
2018-05-04T04:35:54.820Z,144.00
2018-05-04T04:36:54.824Z,148.00
2018-05-04T04:37:54.817Z,152.00
2018-05-04T04:38:54.884Z,152.00
2018-05-04T04:39:54.817Z,156.00
2018-05-04T04:40:54.820Z,156.00
2018-05-04T04:41:54.817Z,160.00
2018-05-04T04:42:54.810Z,160.00
2018-05-04T04:43:54.805Z,156.00
2018-05-04T04:44:54.804Z,160.00
2018-05-04T04:45:54.878Z,160.00
2018-05-04T04:46:54.807Z,164.00
2018-05-04T04:47:54.800Z,164.00
2018-05-04T04:48:54.797Z,160.00
2018-05-04T04:49:54.800Z,160.00
2018-05-04T04:50:54.892Z,164.00
2018-05-04T04:51:54.792Z,172.00
2018-05-04T04:52:54.797Z,172.00
2018-05-04T04:53:54.807Z,180.00
2018-05-04T04:54:54.788Z,184.00
2018-05-04T04:55:54.787Z,184.00
2018-05-04T04:56:54.784Z,188.00
2018-05-04T04:57:54.782Z,188.00
2018-05-04T04:58:54.784Z,188.00
2018-05-04T04:59:54.779Z,188.00
2018-05-04T05:00:54.777Z,196.00
2018-05-04T05:01:54.804Z,208.00
2018-05-04T05:02:54.772Z,216.00
2018-05-04T05:03:54.775Z,216.00
2018-05-04T05:04:54.771Z,228.00
2018-05-04T05:05:54.769Z,248.00
2018-05-04T05:06:54.767Z,252.00
2018-05-04T05:07:54.766Z,260.00
2018-05-04T05:08:54.766Z,280.00
2018-05-04T05:09:54.761Z,296.00
2018-05-04T05:10:54.764Z,300.00
2018-05-04T05:11:54.759Z,316.00
2018-05-04T05:12:54.758Z,324.00
2018-05-04T05:13:54.756Z,324.00
2018-05-04T05:14:54.754Z,328.00
2018-05-04T05:15:54.754Z,328.00
2018-05-04T05:16:54.751Z,332.00
2018-05-04T05:17:54.750Z,324.00
2018-05-04T05:18:54.753Z,348.00
2018-05-04T05:19:54.748Z,380.00
2018-05-04T05:20:54.746Z,380.00
2018-05-04T05:21:54.744Z,384.00
2018-05-04T05:22:54.746Z,392.00
2018-05-04T05:23:54.741Z,388.00
2018-05-04T05:24:54.740Z,392.00
2018-05-04T05:25:54.738Z,396.00
2018-05-04T05:26:54.736Z,396.00
2018-05-04T05:27:54.738Z,408.00
2018-05-04T05:28:54.742Z,412.00
2018-05-04T05:29:54.746Z,420.00
2018-05-04T05:30:54.730Z,444.00
2018-05-04T05:31:54.730Z,440.00
2018-05-04T05:32:54.729Z,448.00
2018-05-04T05:33:54.728Z,472.00
2018-05-04T05:34:54.727Z,484.00
2018-05-04T05:35:54.726Z,488.00
2018-05-04T05:36:54.723Z,480.00
2018-05-04T05:37:54.724Z,496.00
2018-05-04T05:38:54.725Z,532.00
2018-05-04T05:39:54.720Z,552.00
2018-05-04T05:40:54.720Z,556.00
2018-05-04T05:41:54.721Z,592.00
2018-05-04T05:42:54.717Z,620.00
2018-05-04T05:43:54.717Z,596.00
2018-05-04T05:44:54.712Z,592.00
2018-05-04T05:45:54.713Z,616.00
2018-05-04T05:46:54.711Z,608.00
2018-05-04T05:47:54.712Z,624.00
2018-05-04T05:48:54.709Z,616.00
2018-05-04T05:49:54.707Z,608.00
2018-05-04T05:50:54.708Z,604.00
2018-05-04T05:51:54.772Z,592.00
2018-05-04T05:52:54.707Z,616.00
2018-05-04T05:53:54.706Z,644.00
2018-05-04T05:54:54.708Z,668.00
2018-05-04T05:55:54.705Z,692.00
2018-05-04T05:56:54.701Z,748.00
2018-05-04T05:57:54.720Z,800.00
2018-05-04T05:58:54.696Z,808.00
2018-05-04T05:59:54.700Z,796.00
2018-05-04T06:00:54.696Z,832.00
2018-05-04T06:01:54.696Z,856.00
2018-05-04T06:02:54.694Z,864.00
2018-05-04T06:03:54.694Z,860.00
2018-05-04T06:04:54.693Z,864.00
2018-05-04T06:05:54.691Z,864.00
2018-05-04T06:06:54.693Z,892.00
2018-05-04T06:07:54.690Z,940.00
2018-05-04T06:08:54.701Z,1004.00
2018-05-04T06:09:54.693Z,1032.00
2018-05-04T06:10:54.694Z,1108.00
2018-05-04T06:11:54.689Z,1200.00
2018-05-04T06:12:54.690Z,1220.00
2018-05-04T06:13:54.687Z,1196.00
2018-05-04T06:14:54.744Z,1236.00
2018-05-04T06:15:54.698Z,1228.00
2018-05-04T06:16:54.684Z,1116.00
2018-05-04T06:17:54.684Z,1064.00
2018-05-04T06:18:54.684Z,1076.00
2018-05-04T06:19:54.683Z,1020.00
2018-05-04T06:20:54.681Z,1020.00
2018-05-04T06:21:54.682Z,1032.00
2018-05-04T06:22:54.680Z,1032.00
2018-05-04T06:23:54.681Z,1076.00
2018-05-04T06:24:54.679Z,1088.00
2018-05-04T06:25:54.677Z,1100.00
2018-05-04T06:26:54.681Z,1108.00
2018-05-04T06:27:54.676Z,1148.00
2018-05-04T06:28:54.678Z,1184.00
2018-05-04T06:29:54.677Z,1188.00
2018-05-04T06:30:54.676Z,1172.00
2018-05-04T06:31:54.677Z,1232.00
2018-05-04T06:32:54.675Z,1240.00
2018-05-04T06:33:54.737Z,1192.00
2018-05-04T06:34:54.677Z,1184.00
2018-05-04T06:35:54.674Z,1240.00
2018-05-04T06:36:54.672Z,1220.00
2018-05-04T06:37:54.672Z,1196.00
2018-05-04T06:38:54.672Z,1180.00
2018-05-04T06:39:54.672Z,1216.00
2018-05-04T06:40:54.675Z,1224.00
2018-05-04T06:41:54.673Z,1144.00
2018-05-04T06:42:54.682Z,1096.00
2018-05-04T06:43:54.671Z,1052.00
2018-05-04T06:44:54.667Z,1052.00
2018-05-04T06:45:54.669Z,1016.00
2018-05-04T06:46:54.667Z,1012.00
2018-05-04T06:47:54.667Z,1028.00
2018-05-04T06:48:54.667Z,1048.00
2018-05-04T06:49:54.665Z,1048.00
2018-05-04T06:50:54.665Z,1084.00
2018-05-04T06:51:54.665Z,1124.00
2018-05-04T06:52:54.663Z,1200.00
2018-05-04T06:53:54.664Z,1232.00
2018-05-04T06:54:54.664Z,1228.00
2018-05-04T06:55:54.661Z,1228.00
2018-05-04T06:56:54.660Z,1236.00
2018-05-04T06:57:54.662Z,1184.00
2018-05-04T06:58:54.658Z,1164.00
2018-05-04T06:59:54.657Z,1200.00
2018-05-04T07:00:54.656Z,1236.00
2018-05-04T07:01:54.656Z,1236.00
2018-05-04T07:02:54.656Z,1296.00
2018-05-04T07:03:54.657Z,1400.00
2018-05-04T07:04:54.656Z,1460.00
2018-05-04T07:05:54.655Z,1496.00
2018-05-04T07:06:54.654Z,1552.00
2018-05-04T07:07:54.654Z,1640.00
2018-05-04T07:08:54.721Z,1672.00
2018-05-04T07:09:54.654Z,1696.00
2018-05-04T07:10:54.651Z,1704.00
2018-05-04T07:11:54.653Z,1688.00
2018-05-04T07:12:54.652Z,1756.00
2018-05-04T07:13:54.651Z,1924.00
2018-05-04T07:14:54.655Z,1908.00
2018-05-04T07:15:54.652Z,2028.00
2018-05-04T07:16:54.650Z,2228.00
2018-05-04T07:17:54.652Z,2344.00
2018-05-04T07:18:54.651Z,2276.00
2018-05-04T07:19:54.650Z,2304.00
2018-05-04T07:20:54.649Z,2356.00
2018-05-04T07:21:54.648Z,2324.00
2018-05-04T07:22:54.649Z,2248.00
2018-05-04T07:23:54.648Z,2304.00
2018-05-04T07:24:54.648Z,2380.00
2018-05-04T07:25:54.648Z,2384.00
2018-05-04T07:26:54.648Z,1976.00
2018-05-04T07:27:54.648Z,1976.00
2018-05-04T07:28:54.646Z,2016.00
2018-05-04T07:29:54.648Z,1940.00
2018-05-04T07:30:54.647Z,2024.00
2018-05-04T07:31:54.648Z,2256.00
2018-05-04T07:32:54.647Z,2360.00
2018-05-04T07:33:54.646Z,2308.00
2018-05-04T07:34:54.645Z,2364.00
2018-05-04T07:35:54.693Z,2416.00
2018-05-04T07:36:54.646Z,2160.00
2018-05-04T07:37:54.645Z,2060.00
2018-05-04T07:38:54.647Z,2176.00
2018-05-04T07:39:54.647Z,2248.00
2018-05-04T07:40:54.645Z,2244.00
2018-05-04T07:41:54.697Z,2424.00
2018-05-04T07:42:54.647Z,2572.00
2018-05-04T07:43:54.647Z,2564.00
2018-05-04T07:44:54.646Z,2840.00
2018-05-04T07:45:54.647Z,2904.00
2018-05-04T07:46:54.647Z,2900.00
2018-05-04T07:47:54.649Z,2856.00
2018-05-04T07:48:54.647Z,2476.00
2018-05-04T07:49:54.647Z,2176.00
2018-05-04T07:50:54.647Z,2100.00
2018-05-04T07:51:54.649Z,1960.00
2018-05-04T07:52:54.649Z,1960.00
2018-05-04T07:53:54.650Z,2008.00
2018-05-04T07:54:54.651Z,2060.00
2018-05-04T07:55:54.651Z,2092.00
2018-05-04T07:56:54.653Z,2196.00
2018-05-04T07:57:54.652Z,2348.00
2018-05-04T07:58:54.652Z,2560.00
2018-05-04T07:59:54.656Z,2712.00
2018-05-04T08:00:54.656Z,2792.00
2018-05-04T08:01:54.654Z,2780.00
2018-05-04T08:02:54.721Z,2772.00
2018-05-04T08:03:54.660Z,2704.00
2018-05-04T08:04:54.656Z,2688.00
2018-05-04T08:05:54.656Z,2772.00
2018-05-04T08:06:54.660Z,2720.00
2018-05-04T08:07:54.659Z,2704.00
2018-05-04T08:08:54.660Z,2740.00
2018-05-04T08:09:54.665Z,2628.00
2018-05-04T08:10:54.663Z,2560.00
2018-05-04T08:11:54.670Z,2664.00
2018-05-04T08:12:54.664Z,2660.00
2018-05-04T08:13:54.673Z,2696.00
2018-05-04T08:14:54.664Z,2796.00
2018-05-04T08:15:54.673Z,2796.00
2018-05-04T08:16:54.668Z,2772.00
2018-05-04T08:17:54.675Z,2876.00
2018-05-04T08:18:54.670Z,2960.00
2018-05-04T08:19:54.671Z,3028.00
2018-05-04T08:20:54.672Z,3116.00
2018-05-04T08:21:54.674Z,3296.00
2018-05-04T08:22:54.675Z,3416.00
2018-05-04T08:23:54.674Z,3636.00
2018-05-04T08:24:54.678Z,3864.00
2018-05-04T08:25:54.679Z,3912.00
2018-05-04T08:26:54.683Z,3968.00
2018-05-04T08:27:54.682Z,3868.00
2018-05-04T08:28:54.686Z,3816.00
2018-05-04T08:29:54.683Z,3816.00
2018-05-04T08:30:54.684Z,4124.00
2018-05-04T08:31:54.687Z,4200.00
2018-05-04T08:32:54.691Z,4408.00
2018-05-04T08:33:54.688Z,4612.00
2018-05-04T08:34:54.690Z,4616.00
2018-05-04T08:35:54.693Z,4592.00
2018-05-04T08:36:54.696Z,4612.00
2018-05-04T08:37:54.695Z,4352.00
2018-05-04T08:38:54.697Z,4112.00
2018-05-04T08:39:54.699Z,3976.00
2018-05-04T08:40:54.701Z,3980.00
2018-05-04T08:41:54.701Z,3948.00
2018-05-04T08:42:54.727Z,3860.00
2018-05-04T08:43:54.712Z,3580.00
2018-05-04T08:44:54.713Z,3388.00
2018-05-04T08:45:54.711Z,3444.00
2018-05-04T08:46:54.802Z,3608.00
2018-05-04T08:47:54.713Z,3624.00
2018-05-04T08:48:54.722Z,3560.00
2018-05-04T08:49:54.716Z,3428.00
2018-05-04T08:50:54.799Z,3320.00
2018-05-04T08:51:54.735Z,3148.00
2018-05-04T08:52:54.723Z,2956.00
2018-05-04T08:53:54.725Z,2872.00
2018-05-04T08:54:54.725Z,2752.00
2018-05-04T08:55:54.746Z,2644.00
2018-05-04T08:56:54.737Z,2484.00
2018-05-04T08:57:54.732Z,2524.00
2018-05-04T08:58:54.735Z,2548.00
2018-05-04T08:59:54.737Z,2536.00
2018-05-04T09:00:54.738Z,2464.00
2018-05-04T09:01:54.741Z,2580.00
2018-05-04T09:02:54.741Z,2708.00
2018-05-04T09:03:54.750Z,2484.00
2018-05-04T09:04:54.746Z,2576.00
2018-05-04T09:05:54.776Z,2556.00
2018-05-04T09:06:54.749Z,2284.00
2018-05-04T09:07:54.751Z,2236.00
2018-05-04T09:08:54.755Z,2212.00
2018-05-04T09:09:54.753Z,2164.00
2018-05-04T09:10:54.762Z,2124.00
2018-05-04T09:11:54.758Z,2128.00
2018-05-04T09:12:54.759Z,2116.00
2018-05-04T09:13:54.776Z,2132.00
2018-05-04T09:14:54.763Z,2188.00
2018-05-04T09:15:54.766Z,2208.00
2018-05-04T09:16:54.766Z,2276.00
2018-05-04T09:17:54.766Z,2388.00
2018-05-04T09:18:54.766Z,2336.00
2018-05-04T09:19:54.787Z,2360.00
2018-05-04T09:20:54.771Z,2328.00
2018-05-04T09:21:54.777Z,2208.00
2018-05-04T09:22:54.777Z,2168.00
2018-05-04T09:23:54.781Z,2132.00
2018-05-04T09:24:54.779Z,2188.00
2018-05-04T09:25:54.784Z,2336.00
2018-05-04T09:26:54.783Z,2528.00
2018-05-04T09:27:54.790Z,2596.00
2018-05-04T09:28:54.784Z,2612.00
2018-05-04T09:29:54.783Z,2784.00
2018-05-04T09:30:54.864Z,2804.00
2018-05-04T09:31:54.791Z,2724.00
2018-05-04T09:32:54.791Z,2704.00
2018-05-04T09:33:54.788Z,2612.00
2018-05-04T09:34:54.801Z,2504.00
2018-05-04T09:35:54.794Z,2528.00
2018-05-04T09:36:54.798Z,2464.00
2018-05-04T09:37:54.796Z,2596.00
2018-05-04T09:38:54.799Z,2792.00
2018-05-04T09:39:54.801Z,2672.00
2018-05-04T09:40:54.800Z,2612.00
2018-05-04T09:41:54.803Z,2560.00
2018-05-04T09:42:54.804Z,2432.00
2018-05-04T09:43:54.806Z,2448.00
2018-05-04T09:44:54.809Z,2492.00
2018-05-04T09:45:54.809Z,2556.00
2018-05-04T09:46:54.812Z,2744.00
2018-05-04T09:47:54.820Z,2816.00
2018-05-04T09:48:54.872Z,2920.00
2018-05-04T09:49:54.816Z,2984.00
2018-05-04T09:50:54.823Z,2984.00
2018-05-04T09:51:54.825Z,3072.00
2018-05-04T09:52:54.824Z,3084.00
2018-05-04T09:53:54.821Z,3152.00
2018-05-04T09:54:54.827Z,3448.00
2018-05-04T09:55:54.923Z,3540.00
2018-05-04T09:56:54.831Z,3844.00
2018-05-04T09:57:54.829Z,4296.00
2018-05-04T09:58:54.830Z,4204.00
2018-05-04T09:59:54.843Z,4372.00
2018-05-04T10:00:54.833Z,4356.00
2018-05-04T10:01:54.837Z,4504.00
2018-05-04T10:02:54.838Z,4540.00
2018-05-04T10:03:54.838Z,4628.00
2018-05-04T10:04:54.841Z,4820.00
2018-05-04T10:05:54.842Z,5076.00
2018-05-04T10:06:54.848Z,5236.00
2018-05-04T10:07:54.852Z,5132.00
2018-05-04T10:08:54.849Z,5140.00
2018-05-04T10:09:54.851Z,4980.00
2018-05-04T10:10:54.853Z,4840.00
2018-05-04T10:11:54.854Z,4652.00
2018-05-04T10:12:54.860Z,4644.00
2018-05-04T10:13:54.863Z,4772.00
2018-05-04T10:14:54.862Z,4788.00
2018-05-04T10:15:54.862Z,4888.00
2018-05-04T10:16:54.865Z,5056.00
2018-05-04T10:17:54.868Z,5072.00
2018-05-04T10:18:54.876Z,5160.00
2018-05-04T10:19:54.875Z,5212.00
2018-05-04T10:20:54.877Z,5104.00
2018-05-04T10:21:54.891Z,5032.00
2018-05-04T10:22:54.890Z,5152.00
2018-05-04T10:23:54.885Z,5260.00
2018-05-04T10:24:54.887Z,5152.00
2018-05-04T10:25:54.889Z,5264.00
2018-05-04T10:26:54.895Z,5156.00
2018-05-04T10:27:54.939Z,4948.00
2018-05-04T10:28:54.898Z,4936.00
2018-05-04T10:29:54.910Z,4660.00
2018-05-04T10:30:54.927Z,4808.00
2018-05-04T10:31:54.909Z,4756.00
2018-05-04T10:32:54.910Z,4868.00
2018-05-04T10:33:54.913Z,5140.00
2018-05-04T10:34:54.921Z,5136.00
2018-05-04T10:35:54.929Z,5236.00
2018-05-04T10:36:54.922Z,5132.00
2018-05-04T10:37:54.928Z,4960.00
2018-05-04T10:38:55.026Z,4576.00
2018-05-04T10:39:54.935Z,4416.00
2018-05-04T10:40:54.936Z,4284.00
2018-05-04T10:41:54.938Z,4248.00
2018-05-04T10:42:54.947Z,4268.00
2018-05-04T10:43:54.944Z,4252.00
2018-05-04T10:44:54.946Z,4320.00
2018-05-04T10:45:54.950Z,4224.00
2018-05-04T10:46:54.954Z,4300.00
2018-05-04T10:47:54.978Z,3912.00
2018-05-04T10:48:54.960Z,3704.00
2018-05-04T10:49:54.962Z,3732.00
2018-05-04T10:50:54.964Z,3792.00
2018-05-04T10:51:54.970Z,4124.00
2018-05-04T10:52:54.973Z,4216.00
2018-05-04T10:53:54.973Z,4496.00
2018-05-04T10:54:54.984Z,4596.00
2018-05-04T10:55:54.981Z,4572.00
2018-05-04T10:56:54.983Z,4608.00
2018-05-04T10:57:54.987Z,4400.00
2018-05-04T10:58:54.989Z,4192.00
2018-05-04T10:59:54.992Z,4140.00
2018-05-04T11:00:54.994Z,4196.00
2018-05-04T11:01:54.998Z,4256.00
2018-05-04T11:02:55.012Z,4344.00
2018-05-04T11:03:55.015Z,4288.00
2018-05-04T11:04:55.011Z,4280.00
2018-05-04T11:05:55.013Z,4256.00
2018-05-04T11:06:55.015Z,4276.00
2018-05-04T11:07:55.021Z,4284.00
2018-05-04T11:08:55.021Z,4408.00
2018-05-04T11:09:55.030Z,4336.00
2018-05-04T11:10:55.028Z,4472.00
2018-05-04T11:11:55.049Z,4652.00
2018-05-04T11:12:55.038Z,4676.00
2018-05-04T11:13:55.036Z,4576.00
2018-05-04T11:14:55.044Z,4472.00
2018-05-04T11:15:55.046Z,4368.00
2018-05-04T11:16:55.048Z,4336.00
2018-05-04T11:17:55.053Z,4388.00
2018-05-04T11:18:55.056Z,4352.00
2018-05-04T11:19:55.060Z,4480.00
2018-05-04T11:20:55.066Z,4420.00
2018-05-04T11:21:55.067Z,4460.00
2018-05-04T11:22:55.073Z,4520.00
2018-05-04T11:23:55.078Z,4412.00
2018-05-04T11:24:55.075Z,4300.00
2018-05-04T11:25:55.077Z,4356.00
2018-05-04T11:26:55.082Z,4448.00
2018-05-04T11:27:55.093Z,4376.00
2018-05-04T11:28:55.160Z,4360.00
2018-05-04T11:29:55.097Z,4436.00
2018-05-04T11:30:55.188Z,4540.00
2018-05-04T11:31:55.107Z,4524.00
2018-05-04T11:32:55.102Z,4496.00
2018-05-04T11:33:55.108Z,4460.00
2018-05-04T11:34:55.110Z,4348.00
2018-05-04T11:35:55.113Z,4384.00
2018-05-04T11:36:55.120Z,4272.00
2018-05-04T11:37:55.119Z,4236.00
2018-05-04T11:38:55.138Z,4212.00
2018-05-04T11:39:55.127Z,4244.00
2018-05-04T11:40:55.128Z,4224.00
2018-05-04T11:41:55.135Z,4192.00
2018-05-04T11:42:55.157Z,4068.00
2018-05-04T11:43:55.139Z,4068.00
2018-05-04T11:44:55.142Z,4056.00
2018-05-04T11:45:55.146Z,4136.00
2018-05-04T11:46:55.152Z,4196.00
2018-05-04T11:47:55.156Z,4240.00
2018-05-04T11:48:55.159Z,4392.00
2018-05-04T11:49:55.160Z,4452.00
2018-05-04T11:50:55.171Z,4380.00
2018-05-04T11:51:55.168Z,4396.00
2018-05-04T11:52:55.169Z,4252.00
2018-05-04T11:53:55.176Z,4092.00
2018-05-04T11:54:55.180Z,4120.00
2018-05-04T11:55:55.185Z,4064.00
2018-05-04T11:56:55.238Z,4080.00
2018-05-04T11:57:55.195Z,4116.00
2018-05-04T11:58:55.194Z,4168.00
2018-05-04T11:59:55.199Z,4204.00
2018-05-04T12:00:55.198Z,4064.00
2018-05-04T12:01:55.218Z,4084.00
2018-05-04T12:02:55.234Z,4076.00
2018-05-04T12:03:55.274Z,4388.00
2018-05-04T12:04:55.249Z,3964.00
2018-05-04T12:05:55.673Z,4024.00
2018-05-04T12:06:55.319Z,4188.00
2018-05-04T12:07:55.278Z,4128.00
2018-05-04T12:08:55.234Z,4164.00
2018-05-04T12:09:55.261Z,4020.00
2018-05-04T12:10:55.270Z,3964.00
2018-05-04T12:11:55.253Z,3968.00
2018-05-04T12:12:55.255Z,3968.00
2018-05-04T12:13:55.255Z,3892.00
2018-05-04T12:14:55.302Z,3960.00
2018-05-04T12:15:55.359Z,3824.00
2018-05-04T12:16:55.280Z,3832.00
2018-05-04T12:17:55.273Z,3748.00
2018-05-04T12:18:55.295Z,3728.00
2018-05-04T12:19:55.295Z,3792.00
2018-05-04T12:20:55.296Z,3624.00
2018-05-04T12:21:55.287Z,3604.00
2018-05-04T12:22:55.335Z,3612.00
2018-05-04T12:23:55.295Z,3552.00
2018-05-04T12:24:55.306Z,3496.00
2018-05-04T12:25:55.853Z,3376.00
2018-05-04T12:26:55.338Z,3436.00
2018-05-04T12:27:55.318Z,3600.00
2018-05-04T12:28:55.480Z,3588.00
2018-05-04T12:29:55.321Z,3600.00
2018-05-04T12:30:55.361Z,3332.00
2018-05-04T12:31:55.334Z,3592.00